Time;durP1;ratioP1;P1;durP2;ratioP2;P2;SDS_P1;SDS_P2;PMS_P1;PMS_P2;Temp;Humidity;BMP_temperature;BMP_pressure;BME280_temperature;BME280_humidity;BME280_pressure;Samples;Min_cycle;Max_cycle;Signal;HPM_P1;HPM_P2
2023/07/20 00:01:27;;;;;;;5.40;2.47;;;;;;;;;;5054772;28;20036;-81
2023/07/20 00:03:56;;;;;;;7.97;2.40;;;;;;;;;;5054539;28;20028;-81
2023/07/20 00:06:22;;;;;;;7.80;2.55;;;;;;;;;;5052909;28;20049;-81
2023/07/20 00:08:47;;;;;;;7.18;2.08;;;;;;;;;;5036717;28;20032;-81
2023/07/20 00:11:13;;;;;;;13.00;2.53;;;;;;;;;;5054574;28;20051;-81
2023/07/20 00:13:39;;;;;;;6.50;2.13;;;;;;;;;;5054262;28;20462;-81
2023/07/20 00:16:04;;;;;;;6.40;2.53;;;;;;;;;;5037220;28;20025;-81
2023/07/20 00:18:30;;;;;;;6.85;2.45;;;;;;;;;;5036403;28;20094;-81
2023/07/20 00:20:55;;;;;;;9.95;2.30;;;;;;;;;;5036457;28;20029;-81
2023/07/20 00:23:22;;;;;;;9.63;2.35;;;;;;;;;;5054420;28;20067;-81
2023/07/20 00:25:48;;;;;;;11.13;2.20;;;;;;;;;;5020047;28;20040;-81
2023/07/20 00:28:13;;;;;;;7.38;2.10;;;;;;;;;;5036471;28;20031;-81
2023/07/20 00:30:39;;;;;;;6.63;2.20;;;;;;;;;;5054210;28;21184;-80
2023/07/20 00:33:06;;;;;;;8.45;2.35;;;;;;;;;;5035914;28;20057;-80
2023/07/20 00:35:32;;;;;;;4.35;2.25;;;;;;;;;;5019829;28;20448;-81
2023/07/20 00:37:57;;;;;;;5.75;2.30;;;;;;;;;;5053931;28;20032;-81
2023/07/20 00:40:22;;;;;;;7.18;2.50;;;;;;;;;;5036160;28;20025;-81
2023/07/20 00:42:48;;;;;;;5.45;2.25;;;;;;;;;;5036049;28;20032;-81
2023/07/20 00:45:13;;;;;;;5.72;2.30;;;;;;;;;;5053323;28;20075;-82
2023/07/20 00:47:39;;;;;;;7.22;2.45;;;;;;;;;;5052389;28;20131;-81
2023/07/20 00:50:04;;;;;;;3.67;2.35;;;;;;;;;;5052828;28;20068;-80
2023/07/20 00:52:31;;;;;;;8.05;2.50;;;;;;;;;;5052411;28;20188;-82
2023/07/20 00:54:57;;;;;;;7.50;2.60;;;;;;;;;;5035998;28;20044;-81
2023/07/20 00:57:23;;;;;;;9.50;2.60;;;;;;;;;;5019512;28;20033;-81
2023/07/20 00:59:48;;;;;;;5.05;2.45;;;;;;;;;;5035993;28;20029;-81
2023/07/20 01:02:14;;;;;;;10.63;2.65;;;;;;;;;;5035765;28;20036;-81
2023/07/20 01:04:39;;;;;;;7.15;2.58;;;;;;;;;;5035776;28;20013;-81
2023/07/20 01:07:31;;;;;;;9.02;2.55;;;;;;;;;;5019654;28;20078;-82
2023/07/20 01:10:18;;;;;;;9.15;2.50;;;;;;;;;;5020349;28;20033;-81
2023/07/20 01:12:47;;;;;;;9.52;2.92;;;;;;;;;;5035807;28;20068;-81
2023/07/20 01:15:13;;;;;;;6.93;2.38;;;;;;;;;;5019817;28;20021;-81
2023/07/20 01:17:38;;;;;;;5.95;2.35;;;;;;;;;;5035664;28;20371;-81
2023/07/20 01:20:05;;;;;;;5.85;2.28;;;;;;;;;;5019641;28;20064;-81
2023/07/20 01:23:09;;;;;;;9.00;2.50;;;;;;;;;;5002904;28;20383;-81
2023/07/20 01:25:59;;;;;;;8.32;2.58;;;;;;;;;;5053724;28;20076;-81
2023/07/20 01:28:56;;;;;;;7.80;2.50;;;;;;;;;;5038486;28;20029;-81
2023/07/20 01:31:25;;;;;;;12.23;2.55;;;;;;;;;;5053328;28;20078;-81
2023/07/20 01:33:53;;;;;;;5.88;2.78;;;;;;;;;;5019147;28;20048;-81
2023/07/20 01:36:19;;;;;;;8.35;2.47;;;;;;;;;;5019241;28;20135;-81
2023/07/20 01:38:45;;;;;;;8.52;2.70;;;;;;;;;;5019094;28;20111;-81
2023/07/20 01:41:10;;;;;;;8.57;2.53;;;;;;;;;;5019639;28;20351;-81
2023/07/20 01:43:36;;;;;;;6.88;2.38;;;;;;;;;;5053176;28;20025;-81
2023/07/20 01:46:01;;;;;;;4.13;2.22;;;;;;;;;;5053008;28;20021;-82
2023/07/20 01:48:27;;;;;;;4.85;2.20;;;;;;;;;;5035436;28;20368;-81
2023/07/20 01:50:52;;;;;;;5.93;2.08;;;;;;;;;;5053191;28;20112;-80
2023/07/20 01:53:18;;;;;;;6.75;2.30;;;;;;;;;;5035261;28;20087;-81
2023/07/20 01:55:43;;;;;;;5.82;2.10;;;;;;;;;;5054365;28;20020;-80
2023/07/20 01:58:09;;;;;;;9.10;2.53;;;;;;;;;;5056964;28;20025;-81
2023/07/20 02:00:34;;;;;;;8.57;2.10;;;;;;;;;;5038857;28;20025;-81
2023/07/20 02:02:59;;;;;;;10.25;3.13;;;;;;;;;;5039419;28;20033;-81
2023/07/20 02:05:25;;;;;;;2.75;2.00;;;;;;;;;;5038962;28;20067;-80
2023/07/20 02:07:51;;;;;;;6.90;2.15;;;;;;;;;;5056819;28;20519;-81
2023/07/20 02:10:17;;;;;;;4.82;2.47;;;;;;;;;;5056748;28;20043;-81
2023/07/20 02:12:42;;;;;;;8.65;2.70;;;;;;;;;;5056570;28;20028;-81
2023/07/20 02:15:08;;;;;;;8.60;2.22;;;;;;;;;;5056638;28;20131;-80
2023/07/20 02:17:33;;;;;;;7.53;2.55;;;;;;;;;;5038814;28;20017;-81
2023/07/20 02:19:59;;;;;;;6.00;2.17;;;;;;;;;;5022197;28;20495;-80
2023/07/20 02:22:24;;;;;;;6.97;2.63;;;;;;;;;;5056545;28;20032;-80
2023/07/20 02:24:50;;;;;;;8.35;2.42;;;;;;;;;;5056404;28;20063;-80
2023/07/20 02:27:15;;;;;;;6.00;2.20;;;;;;;;;;5056271;28;20017;-81
2023/07/20 02:29:41;;;;;;;7.20;2.20;;;;;;;;;;5054715;28;20108;-80
2023/07/20 02:32:07;;;;;;;6.22;2.47;;;;;;;;;;5038221;28;20029;-80
2023/07/20 02:34:33;;;;;;;12.25;2.30;;;;;;;;;;5038469;28;20039;-81
2023/07/20 02:37:00;;;;;;;6.93;2.28;;;;;;;;;;5056081;28;20456;-81
2023/07/20 02:39:27;;;;;;;10.60;2.30;;;;;;;;;;5038378;28;20448;-81
2023/07/20 02:41:52;;;;;;;5.05;2.25;;;;;;;;;;5054659;28;20029;-81
2023/07/20 02:44:18;;;;;;;9.95;2.47;;;;;;;;;;5037817;28;20032;-81
2023/07/20 02:46:43;;;;;;;4.88;2.10;;;;;;;;;;5037831;28;20036;-81
2023/07/20 02:49:09;;;;;;;6.55;2.50;;;;;;;;;;5020975;28;20048;-81
2023/07/20 02:51:34;;;;;;;5.07;2.40;;;;;;;;;;5055314;28;20024;-81
2023/07/20 02:54:01;;;;;;;11.35;2.63;;;;;;;;;;5055202;28;20029;-81
2023/07/20 02:56:26;;;;;;;5.75;2.25;;;;;;;;;;5055292;28;20079;-81
2023/07/20 02:58:52;;;;;;;7.18;2.30;;;;;;;;;;5037059;28;20029;-81
2023/07/20 03:01:18;;;;;;;5.40;2.30;;;;;;;;;;5055137;28;20422;-81
2023/07/20 03:03:46;;;;;;;7.88;2.20;;;;;;;;;;5037398;28;20499;-81
2023/07/20 03:06:15;;;;;;;9.95;2.33;;;;;;;;;;5021440;28;20384;-81
2023/07/20 03:08:41;;;;;;;6.88;2.60;;;;;;;;;;5020878;28;20090;-81
2023/07/20 03:11:07;;;;;;;8.02;2.45;;;;;;;;;;5038073;28;20043;-81
2023/07/20 03:13:33;;;;;;;11.73;2.20;;;;;;;;;;5037419;28;20087;-82
2023/07/20 03:15:58;;;;;;;10.80;2.90;;;;;;;;;;5021265;28;20033;-81
2023/07/20 03:18:23;;;;;;;13.18;2.80;;;;;;;;;;5054148;28;20037;-81
2023/07/20 03:20:49;;;;;;;8.98;2.38;;;;;;;;;;5054212;28;20029;-81
2023/07/20 03:23:15;;;;;;;15.13;2.78;;;;;;;;;;5037798;28;20029;-81
2023/07/20 03:25:41;;;;;;;9.40;2.38;;;;;;;;;;5020976;28;20132;-81
2023/07/20 03:28:06;;;;;;;7.85;2.30;;;;;;;;;;5037189;28;20115;-81
2023/07/20 03:30:32;;;;;;;5.72;2.40;;;;;;;;;;5055197;28;20021;-81
2023/07/20 03:32:57;;;;;;;3.95;2.25;;;;;;;;;;5037252;28;20032;-81
2023/07/20 03:35:23;;;;;;;12.30;2.53;;;;;;;;;;5037372;28;20123;-81
2023/07/20 03:37:48;;;;;;;11.68;2.75;;;;;;;;;;5055373;28;20070;-80
2023/07/20 03:40:14;;;;;;;7.22;2.40;;;;;;;;;;5037286;28;20025;-81
2023/07/20 03:42:40;;;;;;;13.95;2.60;;;;;;;;;;5054883;28;20029;-81
2023/07/20 03:45:06;;;;;;;9.10;2.63;;;;;;;;;;5037239;28;20505;-80
2023/07/20 03:47:32;;;;;;;10.57;2.55;;;;;;;;;;5037537;28;20048;-81
2023/07/20 03:49:57;;;;;;;7.45;2.38;;;;;;;;;;5054858;28;20051;-81
2023/07/20 03:52:23;;;;;;;10.20;2.28;;;;;;;;;;5055020;28;20028;-82
2023/07/20 03:54:51;;;;;;;12.00;2.60;;;;;;;;;;5037024;28;20464;-81
2023/07/20 03:57:16;;;;;;;8.43;2.70;;;;;;;;;;5037016;28;20021;-82
2023/07/20 03:59:44;;;;;;;4.55;2.00;;;;;;;;;;5020556;28;20475;-81
2023/07/20 04:02:10;;;;;;;11.20;2.33;;;;;;;;;;5020701;28;20056;-82
2023/07/20 04:04:35;;;;;;;8.38;2.17;;;;;;;;;;5054432;28;20448;-81
2023/07/20 04:07:01;;;;;;;5.28;2.33;;;;;;;;;;5036867;28;20032;-81
2023/07/20 04:09:26;;;;;;;9.35;2.38;;;;;;;;;;5036929;28;20029;-82
2023/07/20 04:11:51;;;;;;;9.43;2.25;;;;;;;;;;5036653;28;20047;-81
2023/07/20 04:14:17;;;;;;;6.13;2.15;;;;;;;;;;5036715;28;20059;-81
2023/07/20 04:16:42;;;;;;;7.60;2.22;;;;;;;;;;5054304;28;20059;-81
2023/07/20 04:19:08;;;;;;;10.32;2.95;;;;;;;;;;5053739;28;20414;-81
2023/07/20 04:21:41;;;;;;;10.13;2.65;;;;;;;;;;5054277;28;20025;-81
2023/07/20 04:24:07;;;;;;;10.20;2.92;;;;;;;;;;5020322;28;20056;-81
2023/07/20 04:26:32;;;;;;;7.88;2.75;;;;;;;;;;5053914;28;20064;-80
2023/07/20 04:28:59;;;;;;;8.73;2.40;;;;;;;;;;5054124;28;20427;-81
2023/07/20 04:31:24;;;;;;;10.93;2.40;;;;;;;;;;5036765;28;20574;-81
2023/07/20 04:33:49;;;;;;;10.15;2.40;;;;;;;;;;5036634;28;20076;-81
2023/07/20 04:36:19;;;;;;;12.43;2.55;;;;;;;;;;5036314;28;20384;-81
2023/07/20 04:38:47;;;;;;;11.77;2.65;;;;;;;;;;5037105;28;20086;-83
2023/07/20 04:41:12;;;;;;;12.30;2.28;;;;;;;;;;5036461;28;20082;-81
2023/07/20 04:43:44;;;;;;;11.07;2.40;;;;;;;;;;5053966;28;20028;-81
2023/07/20 04:46:13;;;;;;;8.93;2.17;;;;;;;;;;5036126;28;20106;-80
2023/07/20 04:48:38;;;;;;;9.10;3.13;;;;;;;;;;5035779;28;20037;-81
2023/07/20 04:51:04;;;;;;;8.73;2.60;;;;;;;;;;5035816;28;20028;-80
2023/07/20 04:53:29;;;;;;;9.27;2.40;;;;;;;;;;5053737;28;20087;-80
2023/07/20 04:55:55;;;;;;;8.85;2.83;;;;;;;;;;5035813;28;20025;-81
2023/07/20 04:58:20;;;;;;;8.85;2.50;;;;;;;;;;5054024;28;20021;-80
2023/07/20 05:00:46;;;;;;;11.18;2.80;;;;;;;;;;5036267;28;20040;-82
2023/07/20 05:03:11;;;;;;;9.13;2.85;;;;;;;;;;5019832;28;20029;-81
2023/07/20 05:05:37;;;;;;;9.77;2.63;;;;;;;;;;5019633;28;20095;-81
2023/07/20 05:08:04;;;;;;;9.55;2.72;;;;;;;;;;5035914;28;20029;-81
2023/07/20 05:10:29;;;;;;;10.65;2.80;;;;;;;;;;5019170;28;20037;-82
2023/07/20 05:12:54;;;;;;;5.22;2.50;;;;;;;;;;5053565;28;20380;-80
2023/07/20 05:15:20;;;;;;;11.65;2.90;;;;;;;;;;5035828;28;20466;-82
2023/07/20 05:17:46;;;;;;;8.40;2.90;;;;;;;;;;5053670;28;20029;-81
2023/07/20 05:20:12;;;;;;;4.20;2.42;;;;;;;;;;5036216;28;20123;-82
2023/07/20 05:22:39;;;;;;;12.45;2.88;;;;;;;;;;5054218;28;20055;-81
2023/07/20 05:25:07;;;;;;;7.38;2.58;;;;;;;;;;5053612;28;20044;-81
2023/07/20 05:27:33;;;;;;;7.40;2.60;;;;;;;;;;5036036;28;20025;-81
2023/07/20 05:29:58;;;;;;;9.98;3.00;;;;;;;;;;5053650;28;20063;-81
2023/07/20 05:32:24;;;;;;;8.57;2.28;;;;;;;;;;5057860;28;20064;-82
2023/07/20 05:34:52;;;;;;;11.05;2.75;;;;;;;;;;5057499;28;20368;-82
2023/07/20 05:37:17;;;;;;;8.95;3.10;;;;;;;;;;5006892;28;20029;-82
2023/07/20 05:39:43;;;;;;;10.43;2.65;;;;;;;;;;5056348;28;20467;-82
2023/07/20 05:42:09;;;;;;;10.43;2.85;;;;;;;;;;5023380;28;20436;-82
2023/07/20 05:44:34;;;;;;;9.07;3.00;;;;;;;;;;5057458;28;20469;-82
2023/07/20 05:46:59;;;;;;;10.20;3.35;;;;;;;;;;5039405;28;20040;-82
2023/07/20 05:49:25;;;;;;;7.55;2.95;;;;;;;;;;5040076;28;20033;-82
2023/07/20 05:51:50;;;;;;;6.82;2.90;;;;;;;;;;5023284;28;20033;-82
2023/07/20 05:54:16;;;;;;;14.07;2.70;;;;;;;;;;5006411;28;20040;-82
2023/07/20 05:56:41;;;;;;;10.52;2.80;;;;;;;;;;5023152;28;20384;-83
2023/07/20 05:59:07;;;;;;;11.60;2.83;;;;;;;;;;5039388;28;20029;-82
2023/07/20 06:01:32;;;;;;;10.63;2.42;;;;;;;;;;5039239;28;20083;-82
2023/07/20 06:03:57;;;;;;;11.85;2.50;;;;;;;;;;5057088;28;20032;-82
2023/07/20 06:06:23;;;;;;;9.40;2.80;;;;;;;;;;5056855;28;20404;-82
2023/07/20 06:08:48;;;;;;;7.30;2.40;;;;;;;;;;5038876;28;20131;-83
2023/07/20 06:11:14;;;;;;;12.73;2.90;;;;;;;;;;5039088;28;20079;-83
2023/07/20 06:13:39;;;;;;;9.02;3.20;;;;;;;;;;5056772;28;20052;-82
2023/07/20 06:16:05;;;;;;;9.85;2.85;;;;;;;;;;5039281;28;20041;-82
2023/07/20 06:18:30;;;;;;;6.38;2.70;;;;;;;;;;5038876;28;20021;-83
2023/07/20 06:20:56;;;;;;;7.60;2.78;;;;;;;;;;5038949;28;20380;-83
2023/07/20 06:23:21;;;;;;;6.60;2.70;;;;;;;;;;5038905;28;20025;-83
2023/07/20 06:25:47;;;;;;;7.82;2.60;;;;;;;;;;5022891;28;20025;-83
2023/07/20 06:28:13;;;;;;;10.52;2.90;;;;;;;;;;5039119;28;20376;-83
2023/07/20 06:30:38;;;;;;;8.15;2.83;;;;;;;;;;5022517;28;20708;-83
2023/07/20 06:33:04;;;;;;;7.63;2.28;;;;;;;;;;5055258;28;20043;-83
2023/07/20 06:35:29;;;;;;;8.48;2.30;;;;;;;;;;5038727;28;20029;-83
2023/07/20 06:37:54;;;;;;;8.15;2.65;;;;;;;;;;5056446;28;20025;-84
2023/07/20 06:40:21;;;;;;;6.72;1.90;;;;;;;;;;5056220;28;20029;-83
2023/07/20 06:42:46;;;;;;;5.00;2.00;;;;;;;;;;5055367;28;20456;-82
2023/07/20 06:45:12;;;;;;;5.85;1.80;;;;;;;;;;5022008;28;20063;-82
2023/07/20 06:47:39;;;;;;;10.10;2.03;;;;;;;;;;5038372;28;20123;-82
2023/07/20 06:50:06;;;;;;;10.50;2.30;;;;;;;;;;5005828;28;20440;-82
2023/07/20 06:52:32;;;;;;;6.10;1.88;;;;;;;;;;5038578;28;20115;-81
2023/07/20 06:54:57;;;;;;;7.90;2.03;;;;;;;;;;5038291;28;20056;-82
2023/07/20 06:57:22;;;;;;;4.90;1.85;;;;;;;;;;5038279;28;20483;-83
2023/07/20 06:59:48;;;;;;;10.57;1.85;;;;;;;;;;5038254;28;20384;-82
2023/07/20 07:02:14;;;;;;;7.28;2.08;;;;;;;;;;5056001;28;20392;-83
2023/07/20 07:04:40;;;;;;;8.40;2.72;;;;;;;;;;5021332;28;20482;-82
2023/07/20 07:07:05;;;;;;;4.85;2.22;;;;;;;;;;5056003;28;20020;-80
2023/07/20 07:09:31;;;;;;;7.05;2.20;;;;;;;;;;5055675;28;20025;-81
2023/07/20 07:11:57;;;;;;;10.48;2.30;;;;;;;;;;5055660;28;20523;-81
2023/07/20 07:14:22;;;;;;;7.78;2.42;;;;;;;;;;5055790;28;20028;-81
2023/07/20 07:16:47;;;;;;;10.68;2.75;;;;;;;;;;5055634;28;20025;-80
2023/07/20 07:19:13;;;;;;;9.45;3.40;;;;;;;;;;5037659;28;20024;-81
2023/07/20 07:21:38;;;;;;;12.38;3.25;;;;;;;;;;5038059;28;20113;-81
2023/07/20 07:24:06;;;;;;;11.63;3.53;;;;;;;;;;5054433;28;20044;-82
2023/07/20 07:26:32;;;;;;;5.45;2.53;;;;;;;;;;5037453;28;20090;-81
2023/07/20 07:28:57;;;;;;;6.90;2.88;;;;;;;;;;5055455;28;20020;-81
2023/07/20 07:31:25;;;;;;;10.50;2.40;;;;;;;;;;5055523;28;20056;-81
2023/07/20 07:33:50;;;;;;;11.38;3.00;;;;;;;;;;5055045;28;20029;-81
2023/07/20 07:36:16;;;;;;;9.90;3.08;;;;;;;;;;5037812;28;20115;-80
2023/07/20 07:38:41;;;;;;;11.85;2.55;;;;;;;;;;5037527;28;20071;-80
2023/07/20 07:41:07;;;;;;;10.15;2.95;;;;;;;;;;5055161;28;20025;-80
2023/07/20 07:43:33;;;;;;;8.15;2.97;;;;;;;;;;5053849;28;20041;-81
2023/07/20 07:45:58;;;;;;;8.82;3.58;;;;;;;;;;5055068;28;20463;-81
2023/07/20 07:48:25;;;;;;;9.63;3.35;;;;;;;;;;5055036;28;20029;-82
2023/07/20 07:50:50;;;;;;;11.50;3.60;;;;;;;;;;5037438;28;20029;-80
2023/07/20 07:53:16;;;;;;;13.07;4.18;;;;;;;;;;5055381;28;20059;-81
2023/07/20 07:55:41;;;;;;;11.68;3.80;;;;;;;;;;5054906;28;20143;-81
2023/07/20 07:58:07;;;;;;;14.10;4.30;;;;;;;;;;5004289;28;20467;-81
2023/07/20 08:00:32;;;;;;;10.15;3.60;;;;;;;;;;5037091;28;20032;-81
2023/07/20 08:02:58;;;;;;;6.75;3.03;;;;;;;;;;5054704;28;20029;-81
2023/07/20 08:05:23;;;;;;;10.02;2.85;;;;;;;;;;5054821;28;20060;-83
2023/07/20 08:07:49;;;;;;;10.57;3.05;;;;;;;;;;5054603;28;20033;-81
2023/07/20 08:10:14;;;;;;;8.27;3.08;;;;;;;;;;5054536;28;20064;-82
2023/07/20 08:12:58;;;;;;;7.40;2.75;;;;;;;;;;5036736;28;20032;-82
2023/07/20 08:15:24;;;;;;;9.93;2.90;;;;;;;;;;5036672;28;20126;-82
2023/07/20 08:17:51;;;;;;;7.50;3.15;;;;;;;;;;5020287;28;20067;-82
2023/07/20 08:20:17;;;;;;;10.77;3.40;;;;;;;;;;5037130;28;20081;-82
2023/07/20 08:22:42;;;;;;;13.80;2.78;;;;;;;;;;5020535;28;20028;-82
2023/07/20 08:25:08;;;;;;;8.50;3.20;;;;;;;;;;5036605;28;20047;-81
2023/07/20 08:27:34;;;;;;;10.77;2.55;;;;;;;;;;5020519;28;20112;-83
2023/07/20 08:29:59;;;;;;;10.50;3.10;;;;;;;;;;5020217;28;20425;-82
2023/07/20 08:32:25;;;;;;;13.18;3.10;;;;;;;;;;5036349;28;20029;-81
2023/07/20 08:34:51;;;;;;;9.30;3.13;;;;;;;;;;5054360;28;20032;-82
2023/07/20 08:37:16;;;;;;;10.27;3.10;;;;;;;;;;5054176;28;20035;-82
2023/07/20 08:39:42;;;;;;;8.77;2.60;;;;;;;;;;5054466;28;20029;-83
2023/07/20 08:42:08;;;;;;;10.65;3.45;;;;;;;;;;5000038;28;20040;-81
2023/07/20 08:44:34;;;;;;;8.65;2.70;;;;;;;;;;5016889;28;20033;-81
2023/07/20 08:47:00;;;;;;;8.38;2.92;;;;;;;;;;5000160;28;20029;-81
2023/07/20 08:49:26;;;;;;;6.55;2.70;;;;;;;;;;5032996;28;20025;-81
2023/07/20 08:51:51;;;;;;;8.32;2.70;;;;;;;;;;5017695;28;20060;-82
2023/07/20 08:54:16;;;;;;;12.05;3.38;;;;;;;;;;5036588;28;20041;-81
2023/07/20 08:56:42;;;;;;;8.35;3.67;;;;;;;;;;5052733;28;20117;-80
2023/07/20 08:59:10;;;;;;;10.38;3.45;;;;;;;;;;5034285;28;20043;-81
2023/07/20 09:01:36;;;;;;;9.10;4.07;;;;;;;;;;5026330;28;20088;-81
2023/07/20 09:04:01;;;;;;;8.75;3.95;;;;;;;;;;5039302;28;20445;-81
2023/07/20 09:06:27;;;;;;;17.05;3.78;;;;;;;;;;5015035;28;20049;-82
2023/07/20 09:08:52;;;;;;;12.32;3.72;;;;;;;;;;5032909;28;20040;-81
2023/07/20 09:11:17;;;;;;;11.15;3.75;;;;;;;;;;5016262;28;20037;-83
2023/07/20 09:13:43;;;;;;;11.38;3.63;;;;;;;;;;5033986;28;20602;-83
2023/07/20 09:16:09;;;;;;;11.57;3.13;;;;;;;;;;5032585;28;20026;-82
2023/07/20 09:18:35;;;;;;;12.40;3.50;;;;;;;;;;5014623;28;20026;-82
2023/07/20 09:21:05;;;;;;;10.35;3.03;;;;;;;;;;5014439;28;20083;-81
2023/07/20 09:23:35;;;;;;;9.35;3.20;;;;;;;;;;5031079;28;20026;-82
2023/07/20 09:26:01;;;;;;;7.70;2.88;;;;;;;;;;5014911;28;20029;-81
2023/07/20 09:28:27;;;;;;;9.05;2.90;;;;;;;;;;5014908;28;20044;-82
2023/07/20 09:30:55;;;;;;;9.70;2.60;;;;;;;;;;5032002;28;20025;-82
2023/07/20 09:33:24;;;;;;;6.78;2.95;;;;;;;;;;5016548;28;20028;-82
2023/07/20 09:35:49;;;;;;;7.10;3.10;;;;;;;;;;5000080;28;20419;-81
2023/07/20 09:38:15;;;;;;;7.57;2.70;;;;;;;;;;5016349;28;20120;-81
2023/07/20 09:40:40;;;;;;;7.72;3.10;;;;;;;;;;5016600;28;20049;-81
2023/07/20 09:43:09;;;;;;;11.70;2.90;;;;;;;;;;5000109;28;20477;-81
2023/07/20 09:45:41;;;;;;;11.13;3.08;;;;;;;;;;5016314;28;20026;-82
2023/07/20 09:48:07;;;;;;;10.02;3.42;;;;;;;;;;5016346;28;20475;-82
2023/07/20 09:50:33;;;;;;;6.40;3.03;;;;;;;;;;4999941;28;20120;-82
2023/07/20 09:52:59;;;;;;;12.60;3.20;;;;;;;;;;5016100;28;20025;-83
2023/07/20 09:55:26;;;;;;;10.35;3.58;;;;;;;;;;5016057;28;20353;-82
2023/07/20 09:57:53;;;;;;;9.77;4.20;;;;;;;;;;5032834;28;20033;-81
2023/07/20 10:00:18;;;;;;;11.15;4.00;;;;;;;;;;5015911;28;20538;-82
2023/07/20 10:02:45;;;;;;;10.65;4.07;;;;;;;;;;5033809;28;20029;-81
2023/07/20 10:05:12;;;;;;;7.65;4.18;;;;;;;;;;5016122;28;20041;-81
2023/07/20 10:07:43;;;;;;;8.35;4.22;;;;;;;;;;5016479;28;20045;-82
2023/07/20 10:10:08;;;;;;;10.95;4.15;;;;;;;;;;4999953;28;20384;-82
2023/07/20 10:12:34;;;;;;;14.88;4.30;;;;;;;;;;5016579;28;20026;-82
2023/07/20 10:15:05;;;;;;;11.27;4.28;;;;;;;;;;5031696;28;20400;-81
2023/07/20 10:17:31;;;;;;;14.02;4.80;;;;;;;;;;5034536;28;20021;-82
2023/07/20 10:19:57;;;;;;;14.75;4.65;;;;;;;;;;5020309;28;20076;-81
2023/07/20 10:22:26;;;;;;;14.32;4.97;;;;;;;;;;5019453;28;20460;-81
2023/07/20 10:24:53;;;;;;;9.95;4.40;;;;;;;;;;5019415;28;20419;-81
2023/07/20 10:27:20;;;;;;;9.45;4.00;;;;;;;;;;5019842;28;20037;-82
2023/07/20 10:29:45;;;;;;;13.20;4.28;;;;;;;;;;5003016;28;20033;-81
2023/07/20 10:32:11;;;;;;;10.30;4.28;;;;;;;;;;5035958;28;20433;-81
2023/07/20 10:34:36;;;;;;;9.10;4.13;;;;;;;;;;5019440;28;20045;-81
2023/07/20 10:37:02;;;;;;;10.93;3.78;;;;;;;;;;5036272;28;20463;-82
2023/07/20 10:39:30;;;;;;;10.68;4.00;;;;;;;;;;5019930;28;20033;-82
2023/07/20 10:42:08;;;;;;;10.43;3.60;;;;;;;;;;5037234;28;20099;-81
2023/07/20 10:44:33;;;;;;;14.30;3.53;;;;;;;;;;5019182;28;20091;-82
2023/07/20 10:47:05;;;;;;;12.25;3.60;;;;;;;;;;5035964;28;20474;-82
2023/07/20 10:49:32;;;;;;;11.40;3.75;;;;;;;;;;5019976;28;20457;-82
2023/07/20 10:51:59;;;;;;;14.32;4.15;;;;;;;;;;5019778;28;20100;-82
2023/07/20 10:54:27;;;;;;;11.70;3.28;;;;;;;;;;5037130;28;20116;-81
2023/07/20 10:56:55;;;;;;;7.63;3.43;;;;;;;;;;5044398;28;20029;-82
2023/07/20 10:59:23;;;;;;;9.10;3.53;;;;;;;;;;5028236;28;20292;-81
2023/07/20 11:01:49;;;;;;;13.63;3.75;;;;;;;;;;5046280;28;20056;-82
2023/07/20 11:04:15;;;;;;;14.27;3.83;;;;;;;;;;5045509;28;20042;-83
2023/07/20 11:06:44;;;;;;;8.63;3.58;;;;;;;;;;5043098;28;20049;-81
2023/07/20 11:09:15;;;;;;;13.65;3.60;;;;;;;;;;5019187;28;20025;-82
2023/07/20 11:11:47;;;;;;;11.60;4.05;;;;;;;;;;5017930;28;20037;-82
2023/07/20 11:14:22;;;;;;;12.48;4.32;;;;;;;;;;5035590;28;20053;-82
2023/07/20 11:16:48;;;;;;;9.20;3.90;;;;;;;;;;5036327;28;20432;-81
2023/07/20 11:19:18;;;;;;;10.38;4.35;;;;;;;;;;5036429;28;20041;-81
2023/07/20 11:21:45;;;;;;;10.80;4.45;;;;;;;;;;5001976;28;20021;-82
2023/07/20 11:24:11;;;;;;;8.18;4.05;;;;;;;;;;5018260;28;20041;-82
2023/07/20 11:26:41;;;;;;;7.82;4.43;;;;;;;;;;5018430;28;20400;-82
2023/07/20 11:29:07;;;;;;;10.40;4.50;;;;;;;;;;5017636;28;20025;-82
2023/07/20 11:31:40;;;;;;;10.23;4.85;;;;;;;;;;5017909;28;20091;-82
2023/07/20 11:34:07;;;;;;;10.52;4.90;;;;;;;;;;5017992;28;20544;-82
2023/07/20 11:36:33;;;;;;;12.63;5.28;;;;;;;;;;5018014;28;20080;-82
2023/07/20 11:38:59;;;;;;;8.27;4.32;;;;;;;;;;5034222;28;20025;-82
2023/07/20 11:41:26;;;;;;;12.13;4.47;;;;;;;;;;5001269;28;20029;-83
2023/07/20 11:43:51;;;;;;;10.25;4.75;;;;;;;;;;5034430;28;20037;-81
2023/07/20 11:46:16;;;;;;;11.23;4.95;;;;;;;;;;5035282;28;20092;-82
2023/07/20 11:48:42;;;;;;;13.32;4.88;;;;;;;;;;5017597;28;20041;-81
2023/07/20 11:51:14;;;;;;;10.18;4.80;;;;;;;;;;5035281;28;20037;-82
2023/07/20 11:53:40;;;;;;;17.90;4.90;;;;;;;;;;5035273;28;20029;-81
2023/07/20 11:56:05;;;;;;;15.10;4.85;;;;;;;;;;5033964;28;20026;-82
2023/07/20 11:58:30;;;;;;;8.82;4.93;;;;;;;;;;5001616;28;20369;-82
2023/07/20 12:00:56;;;;;;;10.63;4.70;;;;;;;;;;5035057;28;20025;-82
2023/07/20 12:03:21;;;;;;;12.73;4.88;;;;;;;;;;5017084;28;20476;-81
2023/07/20 12:05:47;;;;;;;11.20;4.70;;;;;;;;;;5017114;28;20060;-81
2023/07/20 12:08:12;;;;;;;11.20;4.85;;;;;;;;;;5033663;28;20029;-81
2023/07/20 12:10:43;;;;;;;9.52;4.63;;;;;;;;;;5016902;28;20029;-81
2023/07/20 12:13:09;;;;;;;10.98;4.60;;;;;;;;;;5034955;28;20029;-82
2023/07/20 12:15:35;;;;;;;9.13;4.68;;;;;;;;;;5017319;28;20360;-80
2023/07/20 12:18:01;;;;;;;10.10;4.03;;;;;;;;;;5034842;28;20021;-81
2023/07/20 12:20:35;;;;;;;10.35;4.15;;;;;;;;;;5017117;28;20032;-82
2023/07/20 12:23:07;;;;;;;13.95;4.05;;;;;;;;;;5034549;28;20069;-81
2023/07/20 12:25:40;;;;;;;6.95;3.80;;;;;;;;;;5033119;28;20448;-83
2023/07/20 12:28:07;;;;;;;12.85;3.83;;;;;;;;;;5017159;28;20029;-81
2023/07/20 12:30:33;;;;;;;7.38;3.60;;;;;;;;;;5017058;28;20083;-82
2023/07/20 12:32:58;;;;;;;11.68;3.83;;;;;;;;;;5016903;28;20030;-83
2023/07/20 12:35:24;;;;;;;10.52;4.00;;;;;;;;;;5034390;28;20029;-82
2023/07/20 12:37:51;;;;;;;7.70;3.60;;;;;;;;;;5034374;28;20088;-81
2023/07/20 12:40:17;;;;;;;9.70;3.80;;;;;;;;;;5033324;28;20021;-81
2023/07/20 12:42:42;;;;;;;9.75;3.45;;;;;;;;;;5034121;28;20125;-83
2023/07/20 12:45:08;;;;;;;9.50;4.10;;;;;;;;;;5034406;28;20029;-82
2023/07/20 12:47:34;;;;;;;8.48;3.97;;;;;;;;;;5034424;28;20031;-82
2023/07/20 12:49:59;;;;;;;9.18;3.72;;;;;;;;;;5017131;28;20067;-83
2023/07/20 12:52:25;;;;;;;6.20;3.38;;;;;;;;;;5034230;28;20029;-81
2023/07/20 12:54:51;;;;;;;7.85;3.80;;;;;;;;;;5033745;28;20030;-81
2023/07/20 12:57:16;;;;;;;9.88;3.45;;;;;;;;;;5034008;28;20029;-81
2023/07/20 12:59:42;;;;;;;11.48;3.42;;;;;;;;;;5034016;28;20033;-81
2023/07/20 13:02:07;;;;;;;9.30;3.42;;;;;;;;;;5033866;28;20438;-82
2023/07/20 13:04:32;;;;;;;9.27;3.63;;;;;;;;;;5016402;28;20095;-82
2023/07/20 13:06:58;;;;;;;9.57;4.03;;;;;;;;;;5033866;28;20053;-81
2023/07/20 13:09:25;;;;;;;9.25;3.50;;;;;;;;;;5034323;28;20053;-82
2023/07/20 13:11:52;;;;;;;12.98;3.60;;;;;;;;;;5033731;28;20033;-82
2023/07/20 13:14:17;;;;;;;12.60;4.20;;;;;;;;;;5016481;28;20030;-82
2023/07/20 13:16:43;;;;;;;7.28;3.60;;;;;;;;;;5034344;28;20036;-82
2023/07/20 13:19:08;;;;;;;9.57;3.67;;;;;;;;;;5034285;28;20061;-82
2023/07/20 13:21:34;;;;;;;10.98;3.53;;;;;;;;;;5033685;28;20029;-82
2023/07/20 13:23:59;;;;;;;7.55;4.03;;;;;;;;;;5033806;28;20041;-81
2023/07/20 13:26:25;;;;;;;12.70;3.80;;;;;;;;;;5016105;28;20042;-82
2023/07/20 13:28:50;;;;;;;10.68;3.90;;;;;;;;;;5033701;28;20026;-82
2023/07/20 13:31:17;;;;;;;11.63;4.28;;;;;;;;;;5032481;28;20041;-82
2023/07/20 13:33:42;;;;;;;7.47;3.45;;;;;;;;;;5032528;28;20060;-82
2023/07/20 13:36:08;;;;;;;10.57;4.18;;;;;;;;;;5033368;28;20068;-81
2023/07/20 13:38:33;;;;;;;12.32;3.90;;;;;;;;;;5015875;28;20033;-83
2023/07/20 13:40:58;;;;;;;7.32;3.78;;;;;;;;;;5015960;28;20029;-82
2023/07/20 13:43:25;;;;;;;6.05;3.97;;;;;;;;;;5032223;28;20456;-82
2023/07/20 13:45:50;;;;;;;10.05;4.20;;;;;;;;;;5016543;28;20080;-82
2023/07/20 13:48:19;;;;;;;12.55;3.83;;;;;;;;;;5033457;28;20033;-82
2023/07/20 13:50:44;;;;;;;14.18;4.07;;;;;;;;;;5033208;28;20029;-81
2023/07/20 13:53:10;;;;;;;11.45;4.25;;;;;;;;;;5036989;28;20079;-81
2023/07/20 13:55:36;;;;;;;12.68;4.22;;;;;;;;;;5037315;28;20025;-81
2023/07/20 13:58:02;;;;;;;9.57;4.22;;;;;;;;;;5036292;28;20039;-81
2023/07/20 14:00:32;;;;;;;12.55;4.40;;;;;;;;;;5037484;28;20034;-81
2023/07/20 14:02:58;;;;;;;9.45;4.05;;;;;;;;;;5036125;28;20056;-82
2023/07/20 14:05:23;;;;;;;15.05;4.60;;;;;;;;;;5035687;28;20041;-82
2023/07/20 14:07:49;;;;;;;9.32;4.90;;;;;;;;;;5019423;28;20033;-81
2023/07/20 14:10:15;;;;;;;6.65;4.18;;;;;;;;;;5019725;28;20033;-80
2023/07/20 14:12:40;;;;;;;11.30;4.20;;;;;;;;;;5036943;28;20022;-81
2023/07/20 14:15:06;;;;;;;8.77;3.80;;;;;;;;;;5019457;28;20404;-82
2023/07/20 14:17:31;;;;;;;10.98;4.15;;;;;;;;;;5036898;28;20048;-82
2023/07/20 14:19:57;;;;;;;18.33;4.47;;;;;;;;;;5019133;28;20030;-82
2023/07/20 14:22:23;;;;;;;9.48;4.53;;;;;;;;;;5035813;28;20025;-82
2023/07/20 14:24:48;;;;;;;7.63;4.03;;;;;;;;;;5019051;28;20037;-82
2023/07/20 14:27:13;;;;;;;16.65;4.38;;;;;;;;;;5003123;28;20033;-82
2023/07/20 14:29:39;;;;;;;9.15;3.95;;;;;;;;;;5002610;28;20026;-81
2023/07/20 14:32:07;;;;;;;11.90;4.05;;;;;;;;;;5019064;28;20026;-81
2023/07/20 14:34:32;;;;;;;15.40;4.47;;;;;;;;;;5018780;28;20030;-82